sensor_id;sensor_type;location;lat;lon;timestamp;pressure;altitude;pressure_sealevel;temperature;humidity
13033;BME280;6583;42.632;23.298;2024-03-29T00:00:13;70332.19;;;-146.40;49.68
13033;BME280;6583;42.632;23.298;2024-03-29T00:02:39;70346.34;;;-146.40;50.66
13033;BME280;6583;42.632;23.298;2024-03-29T00:05:05;70350.38;;;-146.40;50.51
13033;BME280;6583;42.632;23.298;2024-03-29T00:07:31;70346.34;;;-146.40;50.87
13033;BME280;6583;42.632;23.298;2024-03-29T00:09:57;70352.41;;;-146.40;51.59
13033;BME280;6583;42.632;23.298;2024-03-29T00:12:24;70348.38;;;-146.40;51.85
13033;BME280;6583;42.632;23.298;2024-03-29T00:14:50;70344.31;;;-146.40;50.96
13033;BME280;6583;42.632;23.298;2024-03-29T00:17:15;70372.63;;;-146.40;52.37
13033;BME280;6583;42.632;23.298;2024-03-29T00:19:41;70376.69;;;-146.40;52.52
13033;BME280;6583;42.632;23.298;2024-03-29T00:22:07;70405.00;;;-146.40;53.77
13033;BME280;6583;42.632;23.298;2024-03-29T00:24:32;70402.97;;;-146.40;53.78
13033;BME280;6583;42.632;23.298;2024-03-29T00:26:58;70421.19;;;-146.40;54.17
13033;BME280;6583;42.632;23.298;2024-03-29T00:29:25;70455.59;;;-146.40;53.39
13033;BME280;6583;42.632;23.298;2024-03-29T00:31:52;70435.34;;;-146.40;52.97
13033;BME280;6583;42.632;23.298;2024-03-29T00:34:17;70429.28;;;-146.40;52.72
13033;BME280;6583;42.632;23.298;2024-03-29T00:36:43;70431.31;;;-146.40;52.42
13033;BME280;6583;42.632;23.298;2024-03-29T00:39:09;70425.25;;;-146.40;52.81
13033;BME280;6583;42.632;23.298;2024-03-29T00:41:35;70409.06;;;-146.40;52.64
13033;BME280;6583;42.632;23.298;2024-03-29T00:44:00;70413.09;;;-146.40;52.78
13033;BME280;6583;42.632;23.298;2024-03-29T00:46:27;70423.22;;;-146.40;52.98
13033;BME280;6583;42.632;23.298;2024-03-29T00:48:53;70453.56;;;-146.40;53.79
13033;BME280;6583;42.632;23.298;2024-03-29T00:51:19;70485.94;;;-146.40;56.20
13033;BME280;6583;42.632;23.298;2024-03-29T00:53:44;70479.88;;;-146.40;57.13
13033;BME280;6583;42.632;23.298;2024-03-29T00:56:10;70498.06;;;-146.40;57.96
13033;BME280;6583;42.632;23.298;2024-03-29T00:58:36;70489.97;;;-146.40;57.18
13033;BME280;6583;42.632;23.298;2024-03-29T01:01:02;70494.03;;;-146.40;57.25
13033;BME280;6583;42.632;23.298;2024-03-29T01:03:29;70498.06;;;-146.40;57.88
13033;BME280;6583;42.632;23.298;2024-03-29T01:05:54;70496.06;;;-146.40;57.76
13033;BME280;6583;42.632;23.298;2024-03-29T01:08:20;70485.94;;;-146.40;56.57
13033;BME280;6583;42.632;23.298;2024-03-29T01:10:46;70494.03;;;-146.40;58.50
13033;BME280;6583;42.632;23.298;2024-03-29T01:13:12;70502.13;;;-146.40;57.49
13033;BME280;6583;42.632;23.298;2024-03-29T01:15:37;70498.06;;;-146.40;57.48
13033;BME280;6583;42.632;23.298;2024-03-29T01:18:04;70489.97;;;-146.40;57.80
13033;BME280;6583;42.632;23.298;2024-03-29T01:20:31;70479.88;;;-146.40;56.38
13033;BME280;6583;42.632;23.298;2024-03-29T01:22:57;70465.69;;;-146.40;56.03
13033;BME280;6583;42.632;23.298;2024-03-29T01:25:22;70449.53;;;-146.40;55.18
13033;BME280;6583;42.632;23.298;2024-03-29T01:27:48;70431.31;;;-146.40;54.22
13033;BME280;6583;42.632;23.298;2024-03-29T01:30:14;70427.25;;;-146.40;53.84
13033;BME280;6583;42.632;23.298;2024-03-29T01:32:39;70425.25;;;-146.40;53.34
13033;BME280;6583;42.632;23.298;2024-03-29T01:35:05;70413.09;;;-146.40;53.00
13033;BME280;6583;42.632;23.298;2024-03-29T01:37:32;70423.22;;;-146.40;52.47
13033;BME280;6583;42.632;23.298;2024-03-29T01:39:58;70409.06;;;-146.40;52.46
13033;BME280;6583;42.632;23.298;2024-03-29T01:42:24;70429.28;;;-146.40;52.64
13033;BME280;6583;42.632;23.298;2024-03-29T01:44:49;70437.38;;;-146.40;53.10
13033;BME280;6583;42.632;23.298;2024-03-29T01:47:17;70451.53;;;-146.40;53.13
13033;BME280;6583;42.632;23.298;2024-03-29T01:49:44;70449.53;;;-146.40;53.20
13033;BME280;6583;42.632;23.298;2024-03-29T01:52:12;70461.66;;;-146.40;52.70
13033;BME280;6583;42.632;23.298;2024-03-29T01:54:42;70461.66;;;-146.40;52.90
13033;BME280;6583;42.632;23.298;2024-03-29T01:57:09;70473.78;;;-146.40;53.17
13033;BME280;6583;42.632;23.298;2024-03-29T01:59:37;70481.88;;;-146.40;54.08
13033;BME280;6583;42.632;23.298;2024-03-29T02:02:05;70487.97;;;-146.40;54.34
13033;BME280;6583;42.632;23.298;2024-03-29T02:04:31;70502.13;;;-146.40;54.46
13033;BME280;6583;42.632;23.298;2024-03-29T02:06:58;70524.38;;;-146.40;55.74
13033;BME280;6583;42.632;23.298;2024-03-29T02:09:25;70564.84;;;-146.40;55.72
13033;BME280;6583;42.632;23.298;2024-03-29T02:11:53;70599.22;;;-146.40;56.61
13033;BME280;6583;42.632;23.298;2024-03-29T02:14:20;70635.66;;;-146.40;57.88
13033;BME280;6583;42.632;23.298;2024-03-29T02:16:46;70631.59;;;-146.40;59.07
13033;BME280;6583;42.632;23.298;2024-03-29T02:19:13;70643.75;;;-146.40;60.78
13033;BME280;6583;42.632;23.298;2024-03-29T02:21:43;70688.25;;;-146.40;62.00
13033;BME280;6583;42.632;23.298;2024-03-29T02:24:13;70712.53;;;-146.40;62.97
13033;BME280;6583;42.632;23.298;2024-03-29T02:26:41;70706.47;;;-146.40;64.06
13033;BME280;6583;42.632;23.298;2024-03-29T02:29:08;70724.69;;;-146.40;63.87
13033;BME280;6583;42.632;23.298;2024-03-29T02:31:35;70734.78;;;-146.40;64.37
13033;BME280;6583;42.632;23.298;2024-03-29T02:34:02;70724.69;;;-146.40;64.88
13033;BME280;6583;42.632;23.298;2024-03-29T02:36:28;70714.56;;;-146.40;64.15
13033;BME280;6583;42.632;23.298;2024-03-29T02:38:55;70710.50;;;-146.40;64.00
13033;BME280;6583;42.632;23.298;2024-03-29T02:41:24;70710.50;;;-146.40;65.23
13033;BME280;6583;42.632;23.298;2024-03-29T02:43:51;70700.41;;;-146.40;63.27
13033;BME280;6583;42.632;23.298;2024-03-29T02:46:18;70676.13;;;-146.40;62.68
13033;BME280;6583;42.632;23.298;2024-03-29T02:48:44;70661.97;;;-146.40;61.55
13033;BME280;6583;42.632;23.298;2024-03-29T02:51:11;70659.94;;;-146.40;60.05
13033;BME280;6583;42.632;23.298;2024-03-29T02:53:37;70643.75;;;-146.40;59.85
13033;BME280;6583;42.632;23.298;2024-03-29T02:56:04;70633.63;;;-146.40;58.99
13033;BME280;6583;42.632;23.298;2024-03-29T02:58:31;70619.47;;;-146.40;57.97
13033;BME280;6583;42.632;23.298;2024-03-29T03:01:05;70615.41;;;-146.40;57.49
13033;BME280;6583;42.632;23.298;2024-03-29T03:03:30;70619.47;;;-146.40;57.25
13033;BME280;6583;42.632;23.298;2024-03-29T03:05:57;70625.53;;;-146.40;58.84
13033;BME280;6583;42.632;23.298;2024-03-29T03:08:23;70637.69;;;-146.40;59.19
13033;BME280;6583;42.632;23.298;2024-03-29T03:11:07;70649.81;;;-146.40;60.08
13033;BME280;6583;42.632;23.298;2024-03-29T03:13:36;70670.06;;;-146.40;60.30
13033;BME280;6583;42.632;23.298;2024-03-29T03:16:02;70676.13;;;-146.40;60.71
13033;BME280;6583;42.632;23.298;2024-03-29T03:18:29;70672.06;;;-146.40;60.55
13033;BME280;6583;42.632;23.298;2024-03-29T03:20:55;70688.25;;;-146.40;60.74
13033;BME280;6583;42.632;23.298;2024-03-29T03:23:23;70684.22;;;-146.40;60.68
13033;BME280;6583;42.632;23.298;2024-03-29T03:25:54;70692.31;;;-146.40;61.23
13033;BME280;6583;42.632;23.298;2024-03-29T03:28:19;70692.31;;;-146.40;59.97
13033;BME280;6583;42.632;23.298;2024-03-29T03:30:48;70708.50;;;-146.40;61.12
13033;BME280;6583;42.632;23.298;2024-03-29T03:33:13;70710.50;;;-146.40;61.18
13033;BME280;6583;42.632;23.298;2024-03-29T03:35:41;70702.41;;;-146.40;61.14
13033;BME280;6583;42.632;23.298;2024-03-29T03:38:06;70692.31;;;-146.40;60.34
13033;BME280;6583;42.632;23.298;2024-03-29T03:40:34;70682.19;;;-146.40;60.07
13033;BME280;6583;42.632;23.298;2024-03-29T03:43:00;70674.09;;;-146.40;60.06
13033;BME280;6583;42.632;23.298;2024-03-29T03:45:27;70676.13;;;-146.40;59.71
13033;BME280;6583;42.632;23.298;2024-03-29T03:47:54;70688.25;;;-146.40;59.51
13033;BME280;6583;42.632;23.298;2024-03-29T03:50:20;70688.25;;;-146.40;59.90
13033;BME280;6583;42.632;23.298;2024-03-29T03:52:46;70686.25;;;-146.40;59.43
13033;BME280;6583;42.632;23.298;2024-03-29T03:55:13;70692.31;;;-146.40;59.54
13033;BME280;6583;42.632;23.298;2024-03-29T03:57:38;70696.34;;;-146.40;59.48
13033;BME280;6583;42.632;23.298;2024-03-29T04:00:06;70700.41;;;-146.40;59.37
13033;BME280;6583;42.632;23.298;2024-03-29T04:02:32;70708.50;;;-146.40;58.93
13033;BME280;6583;42.632;23.298;2024-03-29T04:05:00;70704.44;;;-146.40;58.52
13033;BME280;6583;42.632;23.298;2024-03-29T04:07:26;70702.41;;;-146.40;58.62
13033;BME280;6583;42.632;23.298;2024-03-29T04:09:52;70702.41;;;-146.40;58.06
13033;BME280;6583;42.632;23.298;2024-03-29T04:12:18;70704.44;;;-146.40;57.39
13033;BME280;6583;42.632;23.298;2024-03-29T04:14:45;70704.44;;;-146.40;56.91
13033;BME280;6583;42.632;23.298;2024-03-29T04:17:12;70708.50;;;-146.40;56.76
13033;BME280;6583;42.632;23.298;2024-03-29T04:19:38;70696.34;;;-146.40;56.64
13033;BME280;6583;42.632;23.298;2024-03-29T04:22:05;70700.41;;;-146.40;55.23
13033;BME280;6583;42.632;23.298;2024-03-29T04:24:32;70702.41;;;-146.40;54.96
13033;BME280;6583;42.632;23.298;2024-03-29T04:26:58;70704.44;;;-146.40;55.84
13033;BME280;6583;42.632;23.298;2024-03-29T04:29:24;70700.41;;;-146.40;55.30
13033;BME280;6583;42.632;23.298;2024-03-29T04:31:50;70704.44;;;-146.40;55.75
13033;BME280;6583;42.632;23.298;2024-03-29T04:34:17;70702.41;;;-146.40;54.92
13033;BME280;6583;42.632;23.298;2024-03-29T04:36:42;70708.50;;;-146.40;55.20
13033;BME280;6583;42.632;23.298;2024-03-29T04:39:11;70704.44;;;-146.40;55.29
13033;BME280;6583;42.632;23.298;2024-03-29T04:41:37;70706.47;;;-146.40;54.98
13033;BME280;6583;42.632;23.298;2024-03-29T04:44:04;70716.59;;;-146.40;55.06
13033;BME280;6583;42.632;23.298;2024-03-29T04:46:33;70704.44;;;-146.40;55.33
13033;BME280;6583;42.632;23.298;2024-03-29T04:49:00;70708.50;;;-146.40;55.19
13033;BME280;6583;42.632;23.298;2024-03-29T04:51:26;70716.59;;;-146.40;54.78
13033;BME280;6583;42.632;23.298;2024-03-29T04:53:53;70710.50;;;-146.40;55.09
13033;BME280;6583;42.632;23.298;2024-03-29T04:56:21;70714.56;;;-146.40;55.23
13033;BME280;6583;42.632;23.298;2024-03-29T04:58:47;70712.53;;;-146.40;54.33
13033;BME280;6583;42.632;23.298;2024-03-29T05:01:14;70708.50;;;-146.40;54.25
13033;BME280;6583;42.632;23.298;2024-03-29T05:03:41;70712.53;;;-146.40;55.43
13033;BME280;6583;42.632;23.298;2024-03-29T05:06:07;70704.44;;;-146.40;55.54
13033;BME280;6583;42.632;23.298;2024-03-29T05:08:34;70698.38;;;-146.40;56.21
13033;BME280;6583;42.632;23.298;2024-03-29T05:11:01;70690.28;;;-146.40;57.19
13033;BME280;6583;42.632;23.298;2024-03-29T05:13:29;70682.19;;;-146.40;57.65
13033;BME280;6583;42.632;23.298;2024-03-29T05:15:57;70674.09;;;-146.40;56.78
13033;BME280;6583;42.632;23.298;2024-03-29T05:18:24;70670.06;;;-146.40;52.98
13033;BME280;6583;42.632;23.298;2024-03-29T05:20:51;70655.88;;;-146.40;55.23
13033;BME280;6583;42.632;23.298;2024-03-29T05:23:17;70641.72;;;-146.40;53.41
13033;BME280;6583;42.632;23.298;2024-03-29T05:25:44;70619.47;;;-146.40;52.91
13033;BME280;6583;42.632;23.298;2024-03-29T05:28:13;70615.41;;;-146.40;53.44
13033;BME280;6583;42.632;23.298;2024-03-29T05:30:43;70603.28;;;-146.40;52.00
13033;BME280;6583;42.632;23.298;2024-03-29T05:33:09;70583.06;;;-146.40;48.95
13033;BME280;6583;42.632;23.298;2024-03-29T05:35:36;70562.81;;;-146.40;48.16
13033;BME280;6583;42.632;23.298;2024-03-29T05:38:03;70542.59;;;-146.40;48.30
13033;BME280;6583;42.632;23.298;2024-03-29T05:40:29;70530.44;;;-146.40;48.35
13033;BME280;6583;42.632;23.298;2024-03-29T05:42:56;70526.41;;;-146.40;49.21
13033;BME280;6583;42.632;23.298;2024-03-29T05:45:25;70494.03;;;-146.40;45.49
13033;BME280;6583;42.632;23.298;2024-03-29T05:47:54;70475.81;;;-146.40;45.80
13033;BME280;6583;42.632;23.298;2024-03-29T05:50:21;70465.69;;;-146.40;45.84
13033;BME280;6583;42.632;23.298;2024-03-29T05:52:48;70441.44;;;-146.40;44.45
13033;BME280;6583;42.632;23.298;2024-03-29T05:55:15;70425.25;;;-146.40;44.20
13033;BME280;6583;42.632;23.298;2024-03-29T05:57:42;70413.09;;;-146.40;43.30
13033;BME280;6583;42.632;23.298;2024-03-29T06:00:11;70402.97;;;-146.40;43.46
13033;BME280;6583;42.632;23.298;2024-03-29T06:02:41;70386.81;;;-146.40;42.85
13033;BME280;6583;42.632;23.298;2024-03-29T06:05:09;70378.72;;;-146.40;42.98
13033;BME280;6583;42.632;23.298;2024-03-29T06:07:36;70376.69;;;-146.40;42.91
13033;BME280;6583;42.632;23.298;2024-03-29T06:10:03;70368.59;;;-146.40;42.68
13033;BME280;6583;42.632;23.298;2024-03-29T06:12:31;70350.38;;;-146.40;42.70
13033;BME280;6583;42.632;23.298;2024-03-29T06:14:58;70344.31;;;-146.40;42.71
13033;BME280;6583;42.632;23.298;2024-03-29T06:17:42;70334.19;;;-146.40;41.27
13033;BME280;6583;42.632;23.298;2024-03-29T06:20:12;70311.94;;;-146.40;41.96
13033;BME280;6583;42.632;23.298;2024-03-29T06:22:39;70291.72;;;-146.40;41.77
13033;BME280;6583;42.632;23.298;2024-03-29T06:25:06;70279.56;;;-146.40;42.20
13033;BME280;6583;42.632;23.298;2024-03-29T06:27:35;70267.44;;;-146.40;42.24
13033;BME280;6583;42.632;23.298;2024-03-29T06:30:03;70263.38;;;-146.40;40.88
13033;BME280;6583;42.632;23.298;2024-03-29T06:32:31;70247.22;;;-146.40;41.07
13033;BME280;6583;42.632;23.298;2024-03-29T06:34:57;70243.16;;;-146.40;40.26
13033;BME280;6583;42.632;23.298;2024-03-29T06:37:26;70247.22;;;-146.40;40.29
13033;BME280;6583;42.632;23.298;2024-03-29T06:39:53;70259.34;;;-146.40;39.60
13033;BME280;6583;42.632;23.298;2024-03-29T06:42:20;70255.28;;;-146.40;39.88
13033;BME280;6583;42.632;23.298;2024-03-29T06:44:47;70247.22;;;-146.40;39.77
13033;BME280;6583;42.632;23.298;2024-03-29T06:47:14;70247.22;;;-146.40;39.83
13033;BME280;6583;42.632;23.298;2024-03-29T06:49:40;70243.16;;;-146.40;39.74
13033;BME280;6583;42.632;23.298;2024-03-29T06:52:07;70247.22;;;-146.40;39.26
13033;BME280;6583;42.632;23.298;2024-03-29T06:54:35;70239.13;;;-146.40;39.12
13033;BME280;6583;42.632;23.298;2024-03-29T06:57:02;70231.03;;;-146.40;39.47
13033;BME280;6583;42.632;23.298;2024-03-29T06:59:29;70218.88;;;-146.40;38.84
13033;BME280;6583;42.632;23.298;2024-03-29T07:01:55;70214.84;;;-146.40;39.14
13033;BME280;6583;42.632;23.298;2024-03-29T07:04:23;70198.66;;;-146.40;39.24
13033;BME280;6583;42.632;23.298;2024-03-29T07:06:51;70190.56;;;-146.40;39.27
13033;BME280;6583;42.632;23.298;2024-03-29T07:09:17;70182.47;;;-146.40;38.40
13033;BME280;6583;42.632;23.298;2024-03-29T07:11:47;70164.25;;;-146.40;38.85
13033;BME280;6583;42.632;23.298;2024-03-29T07:14:14;70154.16;;;-146.40;38.60
13033;BME280;6583;42.632;23.298;2024-03-29T07:16:40;70172.34;;;-146.40;38.12
13033;BME280;6583;42.632;23.298;2024-03-29T07:19:07;70166.28;;;-146.40;38.37
13033;BME280;6583;42.632;23.298;2024-03-29T07:21:34;70144.03;;;-146.40;38.79
13033;BME280;6583;42.632;23.298;2024-03-29T07:24:00;70140.00;;;-146.40;38.36
13033;BME280;6583;42.632;23.298;2024-03-29T07:26:27;70131.91;;;-146.40;38.77
13033;BME280;6583;42.632;23.298;2024-03-29T07:28:55;70113.69;;;-146.40;37.99
13033;BME280;6583;42.632;23.298;2024-03-29T07:31:22;70101.56;;;-146.40;38.41
13033;BME280;6583;42.632;23.298;2024-03-29T07:33:48;70085.38;;;-146.40;38.68
13033;BME280;6583;42.632;23.298;2024-03-29T07:36:15;70075.25;;;-146.40;37.64
13033;BME280;6583;42.632;23.298;2024-03-29T07:38:42;70069.19;;;-146.40;37.34
13033;BME280;6583;42.632;23.298;2024-03-29T07:41:09;70063.13;;;-146.40;37.39
13033;BME280;6583;42.632;23.298;2024-03-29T07:43:39;70057.03;;;-146.40;37.50
13033;BME280;6583;42.632;23.298;2024-03-29T07:46:07;70050.97;;;-146.40;37.90
13033;BME280;6583;42.632;23.298;2024-03-29T07:48:35;70053.00;;;-146.40;37.33
13033;BME280;6583;42.632;23.298;2024-03-29T07:51:02;70055.03;;;-146.40;36.89
13033;BME280;6583;42.632;23.298;2024-03-29T07:53:29;70046.94;;;-146.40;36.52
13033;BME280;6583;42.632;23.298;2024-03-29T07:55:56;70042.88;;;-146.40;36.48
13033;BME280;6583;42.632;23.298;2024-03-29T07:58:21;70040.88;;;-146.40;36.22
13033;BME280;6583;42.632;23.298;2024-03-29T08:00:49;70040.88;;;-146.40;36.69
13033;BME280;6583;42.632;23.298;2024-03-29T08:03:17;70036.81;;;-146.40;36.75
13033;BME280;6583;42.632;23.298;2024-03-29T08:05:56;70032.78;;;-146.40;36.69
13033;BME280;6583;42.632;23.298;2024-03-29T08:08:23;70014.56;;;-146.40;37.25
13033;BME280;6583;42.632;23.298;2024-03-29T08:10:52;70016.59;;;-146.40;36.05
13033;BME280;6583;42.632;23.298;2024-03-29T08:13:19;69998.38;;;-146.40;36.84
13033;BME280;6583;42.632;23.298;2024-03-29T08:15:46;69986.25;;;-146.40;36.52
13033;BME280;6583;42.632;23.298;2024-03-29T08:18:13;69972.09;;;-146.40;36.53
13033;BME280;6583;42.632;23.298;2024-03-29T08:20:41;69966.00;;;-146.40;36.02
13033;BME280;6583;42.632;23.298;2024-03-29T08:23:08;69951.84;;;-146.40;36.59
13033;BME280;6583;42.632;23.298;2024-03-29T08:25:35;69945.78;;;-146.40;35.42
13033;BME280;6583;42.632;23.298;2024-03-29T08:28:01;69931.63;;;-146.40;35.75
13033;BME280;6583;42.632;23.298;2024-03-29T08:30:28;69919.50;;;-146.40;35.93
13033;BME280;6583;42.632;23.298;2024-03-29T08:33:00;69915.44;;;-146.40;35.18
13033;BME280;6583;42.632;23.298;2024-03-29T08:35:28;69903.31;;;-146.40;35.83
13033;BME280;6583;42.632;23.298;2024-03-29T08:37:55;69891.16;;;-146.40;34.75
13033;BME280;6583;42.632;23.298;2024-03-29T08:40:22;69879.03;;;-146.40;35.34
13033;BME280;6583;42.632;23.298;2024-03-29T08:42:49;69860.81;;;-146.40;34.67
13033;BME280;6583;42.632;23.298;2024-03-29T08:45:16;69850.72;;;-146.40;35.83
13033;BME280;6583;42.632;23.298;2024-03-29T08:47:43;69844.66;;;-146.40;33.74
13033;BME280;6583;42.632;23.298;2024-03-29T08:50:09;69850.72;;;-146.40;33.91
13033;BME280;6583;42.632;23.298;2024-03-29T08:52:36;69846.66;;;-146.40;33.96
13033;BME280;6583;42.632;23.298;2024-03-29T08:55:05;69844.66;;;-146.40;33.34
13033;BME280;6583;42.632;23.298;2024-03-29T08:57:32;69842.63;;;-146.40;33.42
13033;BME280;6583;42.632;23.298;2024-03-29T08:59:59;69824.41;;;-146.40;34.18
13033;BME280;6583;42.632;23.298;2024-03-29T09:02:26;69792.06;;;-146.40;33.91
13033;BME280;6583;42.632;23.298;2024-03-29T09:04:52;69777.91;;;-146.40;33.87
13033;BME280;6583;42.632;23.298;2024-03-29T09:07:19;69775.88;;;-146.40;32.51
13033;BME280;6583;42.632;23.298;2024-03-29T09:09:49;69773.84;;;-146.40;32.45
13033;BME280;6583;42.632;23.298;2024-03-29T09:12:17;69765.75;;;-146.40;33.00
13033;BME280;6583;42.632;23.298;2024-03-29T09:14:44;69757.66;;;-146.40;33.02
13033;BME280;6583;42.632;23.298;2024-03-29T09:17:11;69775.88;;;-146.40;31.67
13033;BME280;6583;42.632;23.298;2024-03-29T09:19:37;69767.78;;;-146.40;31.77
13033;BME280;6583;42.632;23.298;2024-03-29T09:22:04;69761.72;;;-146.40;31.83
13033;BME280;6583;42.632;23.298;2024-03-29T09:24:31;69749.56;;;-146.40;32.37
13033;BME280;6583;42.632;23.298;2024-03-29T09:26:59;69741.47;;;-146.40;32.07
13033;BME280;6583;42.632;23.298;2024-03-29T09:29:28;69733.38;;;-146.40;32.25
13033;BME280;6583;42.632;23.298;2024-03-29T09:31:55;69719.22;;;-146.40;31.63
13033;BME280;6583;42.632;23.298;2024-03-29T09:34:22;69692.94;;;-146.40;31.50
13033;BME280;6583;42.632;23.298;2024-03-29T09:36:49;69688.88;;;-146.40;31.51
13033;BME280;6583;42.632;23.298;2024-03-29T09:39:16;69676.75;;;-146.40;31.41
13033;BME280;6583;42.632;23.298;2024-03-29T09:41:44;69668.66;;;-146.40;30.92
13033;BME280;6583;42.632;23.298;2024-03-29T09:44:12;69658.56;;;-146.40;31.92
13033;BME280;6583;42.632;23.298;2024-03-29T09:46:41;69664.63;;;-146.40;31.56
13033;BME280;6583;42.632;23.298;2024-03-29T09:49:09;69654.50;;;-146.40;31.09
13033;BME280;6583;42.632;23.298;2024-03-29T09:51:37;69640.34;;;-146.40;31.69
13033;BME280;6583;42.632;23.298;2024-03-29T09:54:06;69624.16;;;-146.40;31.60
13033;BME280;6583;42.632;23.298;2024-03-29T09:56:38;69620.13;;;-146.40;31.12
13033;BME280;6583;42.632;23.298;2024-03-29T09:59:06;69616.06;;;-146.40;31.17
13033;BME280;6583;42.632;23.298;2024-03-29T10:01:34;69605.97;;;-146.40;30.96
13033;BME280;6583;42.632;23.298;2024-03-29T10:04:03;69607.97;;;-146.40;31.44
13033;BME280;6583;42.632;23.298;2024-03-29T10:06:34;69599.91;;;-146.40;31.22
13033;BME280;6583;42.632;23.298;2024-03-29T10:09:01;69585.72;;;-146.40;31.48
13033;BME280;6583;42.632;23.298;2024-03-29T10:11:27;69563.47;;;-146.40;31.72
13033;BME280;6583;42.632;23.298;2024-03-29T10:13:54;69583.72;;;-146.40;30.37
13033;BME280;6583;42.632;23.298;2024-03-29T10:16:21;69571.56;;;-146.40;30.46
13033;BME280;6583;42.632;23.298;2024-03-29T10:18:49;69567.53;;;-146.40;31.11
13033;BME280;6583;42.632;23.298;2024-03-29T10:21:17;69561.47;;;-146.40;30.75
13033;BME280;6583;42.632;23.298;2024-03-29T10:23:45;69553.38;;;-146.40;30.92
13033;BME280;6583;42.632;23.298;2024-03-29T10:26:13;69557.41;;;-146.40;30.61
13033;BME280;6583;42.632;23.298;2024-03-29T10:28:40;69551.34;;;-146.40;30.87
13033;BME280;6583;42.632;23.298;2024-03-29T10:31:07;69579.66;;;-146.40;31.21
13033;BME280;6583;42.632;23.298;2024-03-29T10:33:34;69581.69;;;-146.40;30.75
13033;BME280;6583;42.632;23.298;2024-03-29T10:36:02;69571.56;;;-146.40;31.99
13033;BME280;6583;42.632;23.298;2024-03-29T10:38:31;69583.72;;;-146.40;30.71
13033;BME280;6583;42.632;23.298;2024-03-29T10:40:58;69575.63;;;-146.40;31.04
13033;BME280;6583;42.632;23.298;2024-03-29T10:43:27;69575.63;;;-146.40;30.59
13033;BME280;6583;42.632;23.298;2024-03-29T10:45:55;69557.41;;;-146.40;31.04
13033;BME280;6583;42.632;23.298;2024-03-29T10:48:25;69551.34;;;-146.40;31.11
13033;BME280;6583;42.632;23.298;2024-03-29T10:50:53;69539.22;;;-146.40;31.06
13033;BME280;6583;42.632;23.298;2024-03-29T10:53:22;69533.16;;;-146.40;31.28
13033;BME280;6583;42.632;23.298;2024-03-29T10:55:54;69543.25;;;-146.40;30.71
13033;BME280;6583;42.632;23.298;2024-03-29T10:58:22;69529.09;;;-146.40;31.38
13033;BME280;6583;42.632;23.298;2024-03-29T11:00:55;69519.00;;;-146.40;31.36
13033;BME280;6583;42.632;23.298;2024-03-29T11:03:30;69531.13;;;-146.40;29.90
13033;BME280;6583;42.632;23.298;2024-03-29T11:06:02;69533.16;;;-146.40;30.49
13033;BME280;6583;42.632;23.298;2024-03-29T11:08:31;69531.13;;;-146.40;31.11
13033;BME280;6583;42.632;23.298;2024-03-29T11:11:04;69523.03;;;-146.40;30.15
13033;BME280;6583;42.632;23.298;2024-03-29T11:13:33;69514.94;;;-146.40;30.32
13033;BME280;6583;42.632;23.298;2024-03-29T11:16:01;69504.84;;;-146.40;31.63
13033;BME280;6583;42.632;23.298;2024-03-29T11:18:28;69516.97;;;-146.40;30.61
13033;BME280;6583;42.632;23.298;2024-03-29T11:20:56;69510.91;;;-146.40;31.03
13033;BME280;6583;42.632;23.298;2024-03-29T11:23:26;69504.84;;;-146.40;30.64
13033;BME280;6583;42.632;23.298;2024-03-29T11:25:55;69510.91;;;-146.40;29.89
13033;BME280;6583;42.632;23.298;2024-03-29T11:28:25;69516.97;;;-146.40;30.09
13033;BME280;6583;42.632;23.298;2024-03-29T11:30:57;69510.91;;;-146.40;31.81
13033;BME280;6583;42.632;23.298;2024-03-29T11:33:29;69498.75;;;-146.40;32.29
13033;BME280;6583;42.632;23.298;2024-03-29T11:35:56;69510.91;;;-146.40;31.53
13033;BME280;6583;42.632;23.298;2024-03-29T11:38:30;69510.91;;;-146.40;30.81
13033;BME280;6583;42.632;23.298;2024-03-29T11:41:07;69500.78;;;-146.40;31.02
13033;BME280;6583;42.632;23.298;2024-03-29T11:43:35;69506.84;;;-146.40;30.68
13033;BME280;6583;42.632;23.298;2024-03-29T11:46:05;69496.75;;;-146.40;30.86
13033;BME280;6583;42.632;23.298;2024-03-29T11:48:32;69502.81;;;-146.40;30.76
13033;BME280;6583;42.632;23.298;2024-03-29T11:51:00;69488.66;;;-146.40;30.90
13033;BME280;6583;42.632;23.298;2024-03-29T11:53:27;69486.63;;;-146.40;31.16
13033;BME280;6583;42.632;23.298;2024-03-29T11:55:55;69474.50;;;-146.40;32.10
13033;BME280;6583;42.632;23.298;2024-03-29T11:58:22;69470.44;;;-146.40;32.12
13033;BME280;6583;42.632;23.298;2024-03-29T12:00:51;69464.38;;;-146.40;30.94
13033;BME280;6583;42.632;23.298;2024-03-29T12:03:18;69460.34;;;-146.40;31.66
13033;BME280;6583;42.632;23.298;2024-03-29T12:05:46;69458.31;;;-146.40;31.33
13033;BME280;6583;42.632;23.298;2024-03-29T12:08:13;69446.19;;;-146.40;31.78
13033;BME280;6583;42.632;23.298;2024-03-29T12:10:41;69442.13;;;-146.40;31.20
13033;BME280;6583;42.632;23.298;2024-03-29T12:13:08;69454.25;;;-146.40;31.33
13033;BME280;6583;42.632;23.298;2024-03-29T12:15:35;69464.38;;;-146.40;31.17
13033;BME280;6583;42.632;23.298;2024-03-29T12:18:04;69466.41;;;-146.40;31.78
13033;BME280;6583;42.632;23.298;2024-03-29T12:20:31;69464.38;;;-146.40;31.78
13033;BME280;6583;42.632;23.298;2024-03-29T12:22:59;69460.34;;;-146.40;31.75
13033;BME280;6583;42.632;23.298;2024-03-29T12:25:27;69456.28;;;-146.40;31.97
13033;BME280;6583;42.632;23.298;2024-03-29T12:27:54;69458.31;;;-146.40;32.11
13033;BME280;6583;42.632;23.298;2024-03-29T12:30:21;69442.13;;;-146.40;32.12
13033;BME280;6583;42.632;23.298;2024-03-29T12:32:48;69434.03;;;-146.40;31.68
13033;BME280;6583;42.632;23.298;2024-03-29T12:35:16;69438.09;;;-146.40;31.38
13033;BME280;6583;42.632;23.298;2024-03-29T12:37:49;69430.00;;;-146.40;31.92
13033;BME280;6583;42.632;23.298;2024-03-29T12:40:17;69434.03;;;-146.40;31.73